Time;durP1;ratioP1;P1;durP2;ratioP2;P2;SDS_P1;SDS_P2;PMS_P1;PMS_P2;Temp;Humidity;BMP_temperature;BMP_pressure;BME280_temperature;BME280_humidity;BME280_pressure;Samples;Min_cycle;Max_cycle;Signal;HPM_P1;HPM_P2
2024/01/19 00:00:17;;;;;;;38.28;18.50;;;1.40;75.90;;;;;;5051126;28;20051;-60
2024/01/19 00:02:53;;;;;;;54.95;19.38;;;1.40;75.90;;;;;;5067621;28;20406;-60
2024/01/19 00:05:22;;;;;;;46.65;20.45;;;1.40;76.00;;;;;;5070994;28;20513;-60
2024/01/19 00:07:49;;;;;;;48.58;19.83;;;1.40;75.90;;;;;;5070291;28;20506;-60
2024/01/19 00:10:18;;;;;;;43.05;19.83;;;1.40;75.90;;;;;;5068174;28;20055;-60
2024/01/19 00:12:46;;;;;;;49.38;19.50;;;1.40;76.00;;;;;;5063143;28;20044;-59
2024/01/19 00:15:12;;;;;;;41.05;19.10;;;1.50;76.10;;;;;;5071078;28;20071;-60
2024/01/19 00:17:39;;;;;;;43.13;21.23;;;1.40;76.20;;;;;;5067102;28;20072;-60
2024/01/19 00:20:10;;;;;;;37.17;20.20;;;1.40;76.40;;;;;;5066949;28;20044;-60
2024/01/19 00:22:38;;;;;;;36.05;19.58;;;1.40;76.50;;;;;;5070616;28;20044;-59
2024/01/19 00:25:10;;;;;;;53.70;20.52;;;1.40;76.50;;;;;;5065534;28;20194;-61
2024/01/19 00:27:39;;;;;;;38.35;21.48;;;1.60;76.70;;;;;;5057739;28;20043;-60
2024/01/19 00:30:09;;;;;;;49.38;20.92;;;1.50;76.70;;;;;;5053280;28;20134;-59
2024/01/19 00:32:36;;;;;;;57.03;20.60;;;1.50;76.70;;;;;;5066052;28;20037;-60
2024/01/19 00:35:05;;;;;;;46.47;21.98;;;1.50;76.80;;;;;;5063917;28;20056;-61
2024/01/19 00:37:34;;;;;;;47.30;22.40;;;1.60;76.90;;;;;;5069907;28;20047;-59
2024/01/19 00:40:01;;;;;;;66.88;24.20;;;1.60;77.00;;;;;;5068587;28;20036;-60
2024/01/19 00:42:32;;;;;;;55.92;24.88;;;1.60;77.00;;;;;;5068499;28;20422;-60
2024/01/19 00:44:58;;;;;;;45.17;22.15;;;1.60;77.10;;;;;;5068348;28;20518;-61
2024/01/19 00:47:25;;;;;;;46.10;22.63;;;1.70;77.20;;;;;;5068287;28;20059;-60
2024/01/19 00:49:54;;;;;;;56.20;21.08;;;1.60;77.10;;;;;;5069816;28;20044;-60
2024/01/19 00:52:23;;;;;;;44.97;21.45;;;1.70;77.10;;;;;;5069658;28;20068;-60
2024/01/19 00:54:54;;;;;;;44.85;21.33;;;1.70;77.10;;;;;;5070430;28;20417;-60
2024/01/19 00:57:21;;;;;;;44.15;22.00;;;1.70;77.10;;;;;;5068291;28;20040;-61
2024/01/19 00:59:48;;;;;;;47.50;22.67;;;1.80;77.10;;;;;;5068372;28;20045;-60
2024/01/19 01:02:16;;;;;;;49.58;23.65;;;1.80;77.10;;;;;;5068548;28;20101;-61
2024/01/19 01:04:48;;;;;;;45.95;23.48;;;1.80;77.10;;;;;;5067911;28;20071;-60
2024/01/19 01:07:17;;;;;;;58.08;22.58;;;1.80;77.10;;;;;;5070056;28;20078;-59
2024/01/19 01:09:48;;;;;;;42.00;21.92;;;1.80;77.60;;;;;;5068737;28;20072;-60
2024/01/19 01:12:17;;;;;;;40.10;20.75;;;1.80;77.00;;;;;;5068920;28;20498;-60
2024/01/19 01:14:49;;;;;;;49.85;23.38;;;1.80;77.20;;;;;;5068478;28;20554;-61
2024/01/19 01:17:18;;;;;;;41.63;21.17;;;1.80;77.20;;;;;;5067919;28;20059;-60
2024/01/19 01:19:46;;;;;;;39.83;22.27;;;1.80;77.30;;;;;;5066439;28;20147;-59
2024/01/19 01:22:19;;;;;;;38.67;21.45;;;1.90;77.30;;;;;;5069775;28;20048;-60
2024/01/19 01:24:46;;;;;;;45.97;22.90;;;1.90;77.30;;;;;;5068201;28;20068;-58
2024/01/19 01:27:15;;;;;;;38.85;23.20;;;1.90;77.40;;;;;;5059030;28;20045;-60
2024/01/19 01:29:46;;;;;;;45.40;23.30;;;1.90;77.40;;;;;;5052313;28;20568;-58
2024/01/19 01:32:13;;;;;;;49.53;23.50;;;1.90;77.40;;;;;;5065138;28;20059;-59
2024/01/19 01:34:42;;;;;;;49.33;24.13;;;1.90;77.30;;;;;;5050283;28;20048;-61
2024/01/19 01:37:11;;;;;;;49.55;24.67;;;2.00;77.50;;;;;;5069771;28;20116;-60
2024/01/19 01:39:37;;;;;;;45.20;25.27;;;2.00;77.40;;;;;;5050671;28;20067;-60
2024/01/19 01:42:04;;;;;;;46.72;23.63;;;2.00;77.40;;;;;;5068308;28;20036;-60
2024/01/19 01:44:34;;;;;;;47.13;25.02;;;2.00;77.50;;;;;;5069383;28;20082;-60
2024/01/19 01:47:03;;;;;;;45.22;24.67;;;2.10;77.50;;;;;;5066699;28;20075;-60
2024/01/19 01:49:33;;;;;;;41.42;22.90;;;2.10;77.60;;;;;;5054818;28;20048;-60
2024/01/19 01:52:03;;;;;;;43.47;24.52;;;2.10;77.60;;;;;;5072940;28;20514;-60
2024/01/19 01:54:30;;;;;;;48.15;24.33;;;2.10;77.50;;;;;;5072137;28;20087;-60
2024/01/19 01:56:57;;;;;;;43.40;23.55;;;2.10;77.60;;;;;;5069465;28;20068;-60
2024/01/19 01:59:26;;;;;;;44.80;24.52;;;2.10;77.60;;;;;;5072178;28;20048;-59
2024/01/19 02:01:53;;;;;;;45.13;23.50;;;2.20;77.60;;;;;;5070191;28;20564;-60
2024/01/19 02:04:23;;;;;;;46.13;25.00;;;2.20;77.60;;;;;;5070199;28;20127;-59
2024/01/19 02:06:49;;;;;;;44.85;22.85;;;2.20;77.50;;;;;;5071325;28;20570;-60
2024/01/19 02:09:18;;;;;;;43.85;24.25;;;2.20;77.40;;;;;;5072712;28;20045;-60
2024/01/19 02:11:47;;;;;;;44.35;24.15;;;2.20;77.30;;;;;;5064059;28;20048;-60
2024/01/19 02:14:16;;;;;;;43.78;24.55;;;2.30;77.40;;;;;;5048713;28;20037;-58
2024/01/19 02:16:47;;;;;;;42.03;22.10;;;2.30;77.30;;;;;;5072095;28;20041;-60
2024/01/19 02:19:17;;;;;;;40.78;21.88;;;2.30;77.50;;;;;;5071503;28;20090;-60
2024/01/19 02:21:49;;;;;;;48.05;25.50;;;2.30;77.50;;;;;;5070136;28;20052;-60
2024/01/19 02:24:16;;;;;;;39.70;23.70;;;2.30;77.50;;;;;;5069719;28;20048;-60
2024/01/19 02:26:46;;;;;;;44.28;24.40;;;2.30;77.40;;;;;;5063086;28;20125;-60
2024/01/19 02:29:12;;;;;;;45.28;23.88;;;2.30;77.40;;;;;;5056818;28;20151;-60
2024/01/19 02:31:40;;;;;;;43.95;22.67;;;2.40;77.50;;;;;;5064092;28;20044;-61
2024/01/19 02:34:11;;;;;;;44.85;23.05;;;2.40;77.50;;;;;;5071783;28;20514;-60
2024/01/19 02:36:43;;;;;;;;;;;2.40;77.50;;;;;;5071670;28;20039;-60
2024/01/19 02:39:10;;;;;;;38.35;21.25;;;2.50;78.10;;;;;;5072644;28;19974;-61
2024/01/19 02:41:39;;;;;;;46.30;22.45;;;2.50;77.30;;;;;;5064821;28;20515;-60
2024/01/19 02:44:08;;;;;;;44.78;22.80;;;2.50;77.30;;;;;;5072024;28;20041;-60
2024/01/19 02:46:38;;;;;;;41.45;22.73;;;2.50;77.30;;;;;;5054611;28;20079;-60
2024/01/19 02:49:05;;;;;;;39.53;21.33;;;2.50;77.30;;;;;;5062885;28;20036;-61
2024/01/19 02:51:34;;;;;;;34.60;20.45;;;2.50;77.40;;;;;;5070771;28;20102;-58
2024/01/19 02:54:01;;;;;;;39.35;22.45;;;2.50;77.30;;;;;;5071142;28;20037;-60
2024/01/19 02:56:30;;;;;;;42.45;21.15;;;2.50;77.30;;;;;;5070538;28;20043;-60
2024/01/19 02:58:59;;;;;;;40.35;21.02;;;2.60;77.50;;;;;;5056817;28;20058;-60
2024/01/19 03:01:25;;;;;;;41.85;22.90;;;2.60;77.40;;;;;;5070621;28;20127;-60
2024/01/19 03:03:57;;;;;;;40.50;22.48;;;2.60;77.40;;;;;;5071096;28;20048;-60
2024/01/19 03:06:23;;;;;;;37.83;21.77;;;2.60;77.40;;;;;;5072293;28;20079;-60
2024/01/19 03:08:56;;;;;;;38.42;21.25;;;2.60;77.30;;;;;;5071247;28;20040;-60
2024/01/19 03:11:25;;;;;;;;;;;2.60;77.20;;;;;;5071258;28;20068;-61
2024/01/19 03:13:55;;;;;;;37.13;19.58;;;2.70;77.60;;;;;;5071487;28;19927;-61
2024/01/19 03:16:24;;;;;;;38.40;22.10;;;2.70;76.90;;;;;;5071918;28;20037;-60
2024/01/19 03:18:55;;;;;;;41.33;22.70;;;2.70;77.00;;;;;;5070189;28;20119;-60
2024/01/19 03:21:21;;;;;;;37.78;20.30;;;2.70;77.00;;;;;;5071170;28;20078;-61
2024/01/19 03:23:48;;;;;;;40.72;22.15;;;2.70;77.00;;;;;;5071613;28;20120;-60
2024/01/19 03:26:17;;;;;;;42.30;21.58;;;2.70;77.00;;;;;;5065507;28;20045;-60
2024/01/19 03:28:46;;;;;;;36.92;20.45;;;2.70;77.10;;;;;;5055073;28;20052;-60
2024/01/19 03:31:16;;;;;;;36.88;22.10;;;2.70;77.10;;;;;;5059220;28;20037;-59
2024/01/19 03:33:45;;;;;;;33.40;19.33;;;2.70;77.10;;;;;;5071170;28;20064;-61
2024/01/19 03:36:23;;;;;;;41.63;21.35;;;2.70;77.10;;;;;;5071771;28;20040;-59
2024/01/19 03:38:52;;;;;;;37.13;21.33;;;2.70;77.10;;;;;;5071048;28;20456;-60
2024/01/19 03:41:20;;;;;;;41.92;21.58;;;2.80;77.10;;;;;;5064877;28;20107;-59
2024/01/19 03:43:47;;;;;;;38.00;20.75;;;2.70;77.10;;;;;;5052075;28;20047;-61
2024/01/19 03:46:17;;;;;;;37.58;20.45;;;2.70;77.10;;;;;;5071186;28;20044;-59
2024/01/19 03:48:48;;;;;;;38.65;21.23;;;2.70;77.10;;;;;;5070567;28;20044;-60
2024/01/19 03:51:17;;;;;;;39.60;19.90;;;2.70;77.20;;;;;;5058248;28;20491;-60
2024/01/19 03:53:47;;;;;;;37.47;20.13;;;2.80;77.20;;;;;;5050189;28;20160;-59
2024/01/19 03:56:19;;;;;;;45.20;23.35;;;2.80;77.20;;;;;;5071313;28;20476;-60
2024/01/19 03:58:46;;;;;;;35.13;20.52;;;2.70;77.10;;;;;;5069906;28;20064;-60
2024/01/19 04:01:15;;;;;;;35.75;19.95;;;2.80;77.20;;;;;;5069383;28;20036;-60
2024/01/19 04:03:44;;;;;;;40.40;20.58;;;2.80;77.20;;;;;;5070553;28;20751;-60
2024/01/19 04:06:15;;;;;;;38.50;21.52;;;2.80;77.20;;;;;;5070856;28;20048;-59
2024/01/19 04:08:44;;;;;;;38.38;21.35;;;2.80;77.30;;;;;;5070465;28;20047;-60
2024/01/19 04:11:13;;;;;;;41.85;22.45;;;2.70;77.40;;;;;;5066458;28;20392;-60
2024/01/19 04:13:42;;;;;;;40.75;22.33;;;2.80;77.50;;;;;;5061716;28;20082;-59
2024/01/19 04:16:23;;;;;;;39.58;21.33;;;2.80;77.60;;;;;;5070248;28;20043;-60
2024/01/19 04:18:54;;;;;;;40.80;20.23;;;2.80;77.60;;;;;;5069948;28;20044;-60
2024/01/19 04:21:20;;;;;;;38.85;21.30;;;2.80;77.50;;;;;;5058188;28;20079;-60
2024/01/19 04:23:50;;;;;;;38.20;21.63;;;2.80;77.60;;;;;;5068519;28;20449;-59
2024/01/19 04:26:17;;;;;;;40.40;21.13;;;2.80;77.60;;;;;;5068172;28;20063;-61
2024/01/19 04:28:46;;;;;;;37.92;19.83;;;2.80;77.60;;;;;;5058852;28;20032;-61
2024/01/19 04:31:13;;;;;;;34.85;18.40;;;2.80;77.70;;;;;;5066813;28;20072;-60
2024/01/19 04:33:45;;;;;;;35.22;19.65;;;2.80;77.70;;;;;;5070165;28;20044;-61
2024/01/19 04:36:14;;;;;;;29.55;17.80;;;2.80;77.70;;;;;;5066527;28;20051;-61
2024/01/19 04:38:40;;;;;;;28.88;17.63;;;2.80;77.60;;;;;;5054816;28;20235;-61
2024/01/19 04:41:07;;;;;;;31.13;18.10;;;2.80;77.60;;;;;;5065067;28;20051;-61
2024/01/19 04:43:36;;;;;;;26.95;15.13;;;2.90;77.70;;;;;;5060549;28;20098;-61
2024/01/19 04:46:16;;;;;;;26.60;15.98;;;2.90;77.70;;;;;;5069384;28;20044;-61
2024/01/19 04:48:43;;;;;;;28.00;16.92;;;2.90;77.70;;;;;;5060960;28;20068;-61
2024/01/19 04:51:12;;;;;;;31.98;17.33;;;2.90;77.80;;;;;;5050686;28;20040;-61
2024/01/19 04:53:43;;;;;;;33.55;18.90;;;2.90;77.70;;;;;;5050602;28;20118;-61
2024/01/19 04:56:14;;;;;;;31.23;16.67;;;2.90;77.60;;;;;;5062984;28;20457;-61
2024/01/19 04:58:44;;;;;;;29.65;17.05;;;2.90;77.70;;;;;;5065157;28;20036;-61
2024/01/19 05:01:11;;;;;;;31.10;18.63;;;2.90;77.70;;;;;;5056711;28;20503;-61
2024/01/19 05:03:38;;;;;;;30.48;17.90;;;2.90;77.60;;;;;;5055442;28;20434;-61
2024/01/19 05:06:04;;;;;;;31.38;15.80;;;2.90;77.60;;;;;;5069788;28;20064;-61
2024/01/19 05:08:37;;;;;;;27.20;16.67;;;2.90;77.60;;;;;;5069642;28;20075;-61
2024/01/19 05:11:06;;;;;;;29.83;17.40;;;2.90;77.50;;;;;;5064053;28;20043;-59
2024/01/19 05:13:33;;;;;;;27.08;15.73;;;2.90;78.10;;;;;;5058629;28;20057;-60
2024/01/19 05:15:59;;;;;;;28.63;17.75;;;2.90;77.50;;;;;;5069513;28;20076;-60
2024/01/19 05:18:28;;;;;;;29.90;17.73;;;2.90;77.40;;;;;;5069467;28;20051;-61
2024/01/19 05:20:55;;;;;;;32.05;17.20;;;2.90;77.50;;;;;;5064377;28;20045;-60
2024/01/19 05:23:22;;;;;;;28.48;18.50;;;2.90;77.40;;;;;;5061896;28;20461;-61
2024/01/19 05:25:48;;;;;;;28.63;17.30;;;2.90;77.40;;;;;;5069368;28;20049;-59
2024/01/19 05:28:16;;;;;;;32.17;18.90;;;2.90;77.40;;;;;;5069145;28;20032;-61
2024/01/19 05:30:48;;;;;;;34.92;19.48;;;2.90;77.40;;;;;;5060619;28;20056;-59
2024/01/19 05:33:15;;;;;;;30.92;17.73;;;2.90;77.30;;;;;;5055042;28;20044;-60
2024/01/19 05:35:42;;;;;;;27.75;16.58;;;2.80;77.30;;;;;;5055980;28;20828;-60
2024/01/19 05:38:09;;;;;;;26.55;16.42;;;2.80;77.20;;;;;;5061640;28;20061;-60
2024/01/19 05:40:35;;;;;;;28.55;18.60;;;2.80;77.20;;;;;;5061098;28;20040;-60
2024/01/19 05:43:03;;;;;;;30.48;17.73;;;2.80;77.30;;;;;;5062317;28;20532;-60
2024/01/19 05:45:30;;;;;;;29.65;17.73;;;2.80;77.20;;;;;;5066474;28;20698;-60
2024/01/19 05:47:56;;;;;;;28.40;16.70;;;2.80;77.10;;;;;;5068702;28;20094;-59
2024/01/19 05:50:23;;;;;;;28.23;15.10;;;2.80;77.20;;;;;;5066381;28;20044;-60
2024/01/19 05:52:50;;;;;;;24.98;15.43;;;2.80;77.10;;;;;;5060931;28;20420;-60
2024/01/19 05:55:17;;;;;;;26.92;16.40;;;2.80;77.10;;;;;;5069565;28;20554;-60
2024/01/19 05:57:43;;;;;;;25.10;15.18;;;2.70;77.00;;;;;;5068073;28;20119;-61
2024/01/19 06:00:10;;;;;;;26.50;15.50;;;2.70;77.00;;;;;;5063752;28;20530;-59
2024/01/19 06:02:37;;;;;;;27.77;16.92;;;2.70;76.90;;;;;;5060947;28;20045;-60
2024/01/19 06:05:04;;;;;;;29.95;17.15;;;2.70;77.00;;;;;;5057483;28;20110;-60
2024/01/19 06:07:32;;;;;;;27.40;15.65;;;2.70;77.00;;;;;;5062901;28;20051;-60
2024/01/19 06:09:59;;;;;;;23.08;15.23;;;2.60;77.00;;;;;;5067522;28;20048;-60
2024/01/19 06:12:26;;;;;;;26.30;15.70;;;2.60;77.00;;;;;;5063514;28;20110;-60
2024/01/19 06:14:53;;;;;;;25.83;15.50;;;2.60;77.10;;;;;;5059318;28;20044;-59
2024/01/19 06:17:19;;;;;;;26.45;15.82;;;2.60;77.10;;;;;;5061266;28;20036;-59
2024/01/19 06:19:46;;;;;;;25.38;16.15;;;2.60;77.10;;;;;;5059461;28;20056;-59
2024/01/19 06:22:13;;;;;;;28.15;16.38;;;2.60;76.90;;;;;;5058550;28;20132;-59
2024/01/19 06:24:40;;;;;;;25.52;15.50;;;2.60;76.70;;;;;;5064732;28;20052;-59
2024/01/19 06:27:07;;;;;;;24.77;15.38;;;2.60;76.70;;;;;;5066224;28;20123;-59
2024/01/19 06:29:34;;;;;;;28.23;16.70;;;2.50;76.60;;;;;;5064381;28;20099;-59
2024/01/19 06:32:01;;;;;;;28.83;15.57;;;2.50;76.60;;;;;;5061123;28;20048;-59
2024/01/19 06:34:28;;;;;;;28.48;16.27;;;2.50;76.70;;;;;;5052821;28;20388;-59
2024/01/19 06:36:55;;;;;;;26.90;16.08;;;2.50;76.80;;;;;;5038395;28;20115;-59
2024/01/19 06:39:21;;;;;;;26.10;16.38;;;2.50;76.90;;;;;;5046087;28;20044;-59
2024/01/19 06:41:48;;;;;;;27.58;16.52;;;2.50;76.90;;;;;;5060971;28;20060;-59
2024/01/19 06:44:15;;;;;;;31.48;17.65;;;2.50;76.90;;;;;;5070014;28;20045;-59
2024/01/19 06:46:46;;;;;;;29.08;16.48;;;2.40;76.90;;;;;;5067183;28;20040;-59
2024/01/19 06:49:13;;;;;;;26.17;16.30;;;2.40;77.00;;;;;;5060491;28;20137;-59
2024/01/19 06:51:40;;;;;;;30.38;17.10;;;2.50;77.10;;;;;;5057524;28;20532;-59
2024/01/19 06:54:07;;;;;;;31.00;17.83;;;2.40;77.00;;;;;;5045205;28;20072;-59
2024/01/19 06:56:34;;;;;;;27.30;16.75;;;2.40;77.00;;;;;;5069387;28;20096;-60
2024/01/19 06:59:01;;;;;;;26.65;17.30;;;2.40;77.00;;;;;;5065727;28;20059;-59
2024/01/19 07:01:28;;;;;;;29.17;17.58;;;2.40;77.00;;;;;;5063252;28;20060;-59
2024/01/19 07:03:54;;;;;;;31.20;19.23;;;2.40;77.00;;;;;;5060670;28;20102;-60
2024/01/19 07:06:21;;;;;;;29.60;18.35;;;2.40;76.90;;;;;;5070457;28;20429;-59
2024/01/19 07:08:48;;;;;;;29.30;17.65;;;2.40;77.00;;;;;;5066338;28;20047;-59
2024/01/19 07:11:15;;;;;;;31.85;18.50;;;2.40;76.90;;;;;;5068752;28;20052;-59
2024/01/19 07:13:42;;;;;;;31.60;17.75;;;2.40;76.90;;;;;;5057873;28;20045;-58
2024/01/19 07:16:08;;;;;;;31.90;19.45;;;2.40;76.80;;;;;;5070047;28;20040;-60
2024/01/19 07:18:36;;;;;;;28.77;17.98;;;2.40;76.80;;;;;;5069566;28;20048;-59
2024/01/19 07:21:03;;;;;;;32.17;18.38;;;2.40;76.70;;;;;;5061592;28;20059;-59
2024/01/19 07:23:31;;;;;;;31.48;18.40;;;2.30;76.80;;;;;;5066429;28;20064;-59
2024/01/19 07:25:58;;;;;;;28.92;17.48;;;2.40;76.80;;;;;;5070629;28;20528;-59
2024/01/19 07:28:24;;;;;;;32.80;18.52;;;2.30;76.80;;;;;;5068711;28;20150;-59
2024/01/19 07:30:51;;;;;;;27.30;18.60;;;2.30;76.80;;;;;;5067859;28;20440;-59
2024/01/19 07:33:18;;;;;;;28.10;18.42;;;2.30;76.80;;;;;;5063304;28;20059;-59
2024/01/19 07:35:58;;;;;;;32.03;18.05;;;2.30;76.80;;;;;;5070616;28;20036;-59
2024/01/19 07:38:26;;;;;;;30.75;19.52;;;2.30;76.80;;;;;;5071443;28;20060;-59
2024/01/19 07:40:55;;;;;;;27.52;16.48;;;2.30;76.80;;;;;;5067822;28;20620;-59
2024/01/19 07:43:22;;;;;;;29.10;18.48;;;2.30;76.80;;;;;;5053265;28;20055;-59
2024/01/19 07:45:49;;;;;;;35.20;19.23;;;2.30;76.80;;;;;;5071790;28;20098;-59
2024/01/19 07:48:16;;;;;;;31.58;18.55;;;2.30;76.80;;;;;;5068358;28;20112;-59
2024/01/19 07:50:42;;;;;;;32.90;18.45;;;2.30;77.00;;;;;;5067639;28;20124;-59
2024/01/19 07:53:10;;;;;;;36.25;18.92;;;2.30;77.00;;;;;;5063407;28;20044;-60
2024/01/19 07:55:36;;;;;;;29.45;19.23;;;2.30;77.10;;;;;;5071830;28;20075;-60
2024/01/19 07:58:04;;;;;;;32.25;19.52;;;2.30;77.10;;;;;;5068209;28;20044;-61
2024/01/19 08:00:30;;;;;;;34.42;19.08;;;2.30;77.20;;;;;;5058337;28;20430;-58
2024/01/19 08:03:00;;;;;;;31.02;17.08;;;2.30;77.20;;;;;;5064125;28;20056;-60
2024/01/19 08:05:27;;;;;;;32.42;18.80;;;2.40;77.20;;;;;;5066743;28;20045;-60
2024/01/19 08:07:54;;;;;;;36.03;19.40;;;2.40;77.00;;;;;;5068673;28;20040;-60
2024/01/19 08:10:20;;;;;;;33.05;18.38;;;2.40;76.90;;;;;;5059360;28;20072;-60
2024/01/19 08:12:51;;;;;;;32.83;18.92;;;2.40;76.90;;;;;;5063640;28;20502;-60
2024/01/19 08:15:17;;;;;;;32.47;18.02;;;2.40;76.80;;;;;;5066231;28;20044;-60
2024/01/19 08:17:44;;;;;;;33.10;19.58;;;2.40;76.70;;;;;;5064168;28;20115;-60
2024/01/19 08:20:11;;;;;;;33.88;20.40;;;2.40;76.70;;;;;;5063760;28;20063;-60
2024/01/19 08:22:38;;;;;;;33.83;18.98;;;2.40;76.70;;;;;;5065034;28;20048;-60
2024/01/19 08:25:05;;;;;;;36.10;18.92;;;2.40;76.70;;;;;;5062559;28;20056;-60
2024/01/19 08:27:32;;;;;;;29.55;18.42;;;2.40;76.60;;;;;;5064604;28;20413;-60
2024/01/19 08:29:59;;;;;;;31.48;18.75;;;2.40;76.60;;;;;;5066593;28;20493;-59
2024/01/19 08:32:26;;;;;;;31.30;18.73;;;2.40;76.60;;;;;;5063235;28;20049;-59
2024/01/19 08:34:53;;;;;;;36.80;19.27;;;2.50;76.60;;;;;;5067938;28;20370;-60
2024/01/19 08:37:20;;;;;;;31.35;19.55;;;2.50;76.70;;;;;;5064938;28;20069;-60
2024/01/19 08:39:46;;;;;;;33.53;19.45;;;2.50;76.70;;;;;;5063652;28;20061;-59
2024/01/19 08:42:13;;;;;;;27.77;19.73;;;2.50;76.70;;;;;;5065563;28;20040;-60
2024/01/19 08:44:46;;;;;;;33.65;19.80;;;2.50;76.60;;;;;;5066777;28;20498;-60
2024/01/19 08:47:13;;;;;;;32.83;19.00;;;2.50;76.60;;;;;;5066472;28;20053;-59
2024/01/19 08:49:41;;;;;;;35.20;20.02;;;2.50;76.70;;;;;;5063978;28;20126;-59
2024/01/19 08:52:08;;;;;;;34.00;19.58;;;2.50;76.70;;;;;;5065249;28;20048;-59
2024/01/19 08:54:35;;;;;;;34.58;19.08;;;2.50;76.70;;;;;;5065607;28;20064;-59
2024/01/19 08:57:01;;;;;;;33.33;19.77;;;2.60;76.70;;;;;;5070103;28;20059;-59
2024/01/19 08:59:32;;;;;;;35.60;21.88;;;2.60;76.70;;;;;;5063486;28;20056;-59
2024/01/19 09:02:00;;;;;;;35.78;21.00;;;2.60;76.60;;;;;;5063656;28;20051;-59
2024/01/19 09:04:27;;;;;;;33.20;19.30;;;2.60;76.50;;;;;;5063179;28;20041;-59
2024/01/19 09:06:55;;;;;;;34.03;20.40;;;2.60;76.50;;;;;;5070110;28;20052;-60
2024/01/19 09:09:24;;;;;;;35.10;21.00;;;2.70;76.70;;;;;;5065561;28;20047;-57
2024/01/19 09:11:50;;;;;;;33.20;20.05;;;2.70;76.60;;;;;;5064112;28;20120;-60
2024/01/19 09:14:18;;;;;;;34.40;19.70;;;2.80;76.70;;;;;;5065419;28;20064;-60
2024/01/19 09:16:45;;;;;;;31.77;19.02;;;2.80;76.60;;;;;;5066212;28;20040;-60
2024/01/19 09:19:12;;;;;;;35.55;20.60;;;2.80;76.60;;;;;;5059363;28;20127;-60
2024/01/19 09:21:44;;;;;;;37.97;21.33;;;2.80;76.40;;;;;;5063170;28;20116;-60
2024/01/19 09:24:13;;;;;;;35.70;20.55;;;2.90;76.30;;;;;;5063301;28;20074;-60
2024/01/19 09:26:40;;;;;;;36.65;20.33;;;2.90;76.30;;;;;;5048369;28;20067;-60
2024/01/19 09:29:09;;;;;;;35.55;20.50;;;2.90;76.20;;;;;;5066819;28;20059;-59
2024/01/19 09:31:46;;;;;;;32.10;19.92;;;3.00;76.30;;;;;;5064182;28;20035;-60
2024/01/19 09:34:16;;;;;;;37.83;20.38;;;3.00;76.20;;;;;;5057875;28;20115;-60
2024/01/19 09:36:43;;;;;;;33.53;19.23;;;3.00;76.20;;;;;;5069918;28;20043;-58
2024/01/19 09:39:12;;;;;;;37.83;20.42;;;3.00;76.10;;;;;;5050640;28;20628;-61
2024/01/19 09:41:45;;;;;;;34.10;19.15;;;3.00;76.00;;;;;;5059310;28;20780;-60
2024/01/19 09:44:12;;;;;;;35.05;19.20;;;3.00;76.00;;;;;;5066039;28;20124;-59
2024/01/19 09:46:51;;;;;;;38.83;21.75;;;3.10;76.10;;;;;;5051904;28;20036;-60
2024/01/19 09:49:26;;;;;;;35.85;20.27;;;3.10;76.10;;;;;;5066993;28;20428;-60
2024/01/19 09:52:01;;;;;;;35.10;19.17;;;3.10;76.30;;;;;;5068033;28;20035;-60
2024/01/19 09:54:34;;;;;;;34.10;19.30;;;3.10;76.50;;;;;;5065655;28;20033;-60
2024/01/19 09:57:03;;;;;;;35.20;19.23;;;3.20;76.30;;;;;;5069859;28;20097;-60
2024/01/19 09:59:31;;;;;;;35.83;19.40;;;3.30;76.30;;;;;;5068941;28;20037;-59
2024/01/19 10:02:01;;;;;;;34.42;20.80;;;3.30;76.10;;;;;;5065396;28;20406;-60
2024/01/19 10:04:29;;;;;;;38.80;21.42;;;3.30;75.90;;;;;;5061535;28;20083;-60
2024/01/19 10:06:56;;;;;;;32.45;20.42;;;3.40;75.90;;;;;;5065757;28;20043;-60
2024/01/19 10:09:23;;;;;;;36.80;20.30;;;3.40;75.80;;;;;;5053551;28;20136;-59
2024/01/19 10:11:52;;;;;;;32.72;19.42;;;3.40;75.70;;;;;;5067706;28;20060;-60
2024/01/19 10:14:20;;;;;;;34.03;19.30;;;3.40;75.60;;;;;;5065537;28;20064;-59
2024/01/19 10:16:51;;;;;;;35.35;19.73;;;3.50;75.70;;;;;;5060395;28;20079;-60
2024/01/19 10:19:20;;;;;;;33.00;20.25;;;3.50;75.50;;;;;;5062755;28;20051;-59
2024/01/19 10:21:49;;;;;;;33.38;19.13;;;3.50;75.40;;;;;;5064254;28;20044;-59
2024/01/19 10:24:20;;;;;;;36.97;20.10;;;3.50;75.30;;;;;;5067821;28;20102;-60
2024/01/19 10:26:55;;;;;;;37.47;21.40;;;3.60;75.20;;;;;;5066401;28;20040;-60
2024/01/19 10:29:22;;;;;;;35.63;21.05;;;3.60;75.10;;;;;;5069425;28;20387;-58
2024/01/19 10:31:53;;;;;;;34.13;19.60;;;3.60;75.10;;;;;;5068247;28;20059;-59
2024/01/19 10:34:22;;;;;;;37.85;20.65;;;3.60;75.10;;;;;;5068074;28;20037;-60
2024/01/19 10:36:50;;;;;;;36.42;21.55;;;3.60;75.20;;;;;;5073287;28;20037;-59
2024/01/19 10:39:25;;;;;;;29.15;18.42;;;3.60;75.40;;;;;;5070448;28;20105;-59
2024/01/19 10:42:04;;;;;;;29.33;18.92;;;3.60;75.40;;;;;;5066635;28;20048;-58
2024/01/19 10:44:32;;;;;;;34.83;19.83;;;3.70;75.20;;;;;;5066576;28;20093;-59
2024/01/19 10:46:58;;;;;;;31.55;18.83;;;3.70;75.00;;;;;;5072792;28;20113;-59
2024/01/19 10:49:25;;;;;;;35.03;19.25;;;3.70;74.80;;;;;;5054281;28;20105;-59
2024/01/19 10:51:53;;;;;;;36.33;20.48;;;3.70;74.70;;;;;;5065919;28;20041;-59
2024/01/19 10:54:24;;;;;;;33.30;20.67;;;3.70;74.80;;;;;;5062438;28;20103;-58
2024/01/19 10:57:11;;;;;;;31.73;19.67;;;3.70;74.80;;;;;;5071701;28;20044;-60
2024/01/19 10:59:39;;;;;;;32.50;19.05;;;3.70;74.70;;;;;;5067066;28;20041;-58
2024/01/19 11:02:05;;;;;;;34.53;20.67;;;3.70;74.80;;;;;;5064557;28;20043;-58
2024/01/19 11:04:32;;;;;;;37.55;20.90;;;3.70;74.80;;;;;;5064574;28;20523;-58
2024/01/19 11:07:00;;;;;;;33.03;20.30;;;3.70;74.90;;;;;;5067663;28;20049;-58
2024/01/19 11:09:27;;;;;;;36.90;20.38;;;3.70;75.00;;;;;;5067160;28;20059;-57
2024/01/19 11:11:55;;;;;;;35.55;20.73;;;3.70;75.20;;;;;;5063608;28;20059;-58
2024/01/19 11:14:24;;;;;;;34.42;20.30;;;3.80;75.50;;;;;;5051277;28;20048;-57
2024/01/19 11:16:55;;;;;;;31.38;20.05;;;3.80;75.40;;;;;;5064498;28;20045;-57
2024/01/19 11:19:23;;;;;;;35.85;20.30;;;3.90;75.30;;;;;;5063475;28;20040;-57
2024/01/19 11:21:51;;;;;;;32.47;19.77;;;3.90;75.30;;;;;;5050414;28;20049;-56
2024/01/19 11:24:20;;;;;;;36.20;21.73;;;4.00;75.10;;;;;;5067656;28;20140;-57
2024/01/19 11:26:52;;;;;;;36.17;21.83;;;4.00;74.90;;;;;;5062712;28;20054;-58
2024/01/19 11:29:30;;;;;;;34.10;19.77;;;4.00;74.80;;;;;;5054638;28;20049;-57
2024/01/19 11:31:58;;;;;;;36.60;19.42;;;4.10;74.80;;;;;;5060875;28;20091;-57
2024/01/19 11:34:45;;;;;;;31.95;19.90;;;4.10;74.80;;;;;;5065481;28;20090;-57
2024/01/19 11:37:44;;;;;;;33.08;21.77;;;4.10;74.50;;;;;;5066591;28;20094;-58
2024/01/19 11:40:24;;;;;;;28.70;19.55;;;4.10;74.30;;;;;;5059322;28;20102;-58
2024/01/19 11:42:51;;;;;;;33.08;19.73;;;4.10;74.20;;;;;;5059534;28;20041;-59
2024/01/19 11:45:42;;;;;;;32.90;18.98;;;4.00;74.30;;;;;;5041826;28;20045;-60
2024/01/19 11:48:11;;;;;;;30.58;18.55;;;4.00;74.50;;;;;;5057675;28;20041;-59
2024/01/19 11:50:42;;;;;;;35.47;20.13;;;4.00;74.50;;;;;;5059865;28;20558;-58
2024/01/19 11:53:09;;;;;;;34.13;19.85;;;4.00;74.50;;;;;;5068988;28;20037;-59
2024/01/19 11:55:39;;;;;;;29.33;18.58;;;4.00;74.50;;;;;;5068544;28;20102;-58
2024/01/19 11:58:42;;;;;;;34.22;20.63;;;4.00;74.50;;;;;;5063769;28;20040;-58
2024/01/19 12:01:09;;;;;;;29.75;19.35;;;4.00;74.60;;;;;;5011833;28;20069;-59
2024/01/19 12:03:36;;;;;;;34.92;20.90;;;3.90;74.70;;;;;;5055787;28;20082;-58
2024/01/19 12:06:05;;;;;;;36.80;21.40;;;3.90;74.80;;;;;;5053590;28;20128;-57
2024/01/19 12:08:33;;;;;;;33.92;19.45;;;4.00;74.90;;;;;;5066764;28;20041;-58
2024/01/19 12:11:14;;;;;;;34.15;20.20;;;3.90;74.80;;;;;;5068679;28;20764;-58
2024/01/19 12:13:42;;;;;;;36.88;20.40;;;4.00;74.90;;;;;;5068575;28;20036;-59
2024/01/19 12:16:22;;;;;;;40.08;21.77;;;4.00;74.90;;;;;;5066371;28;20044;-58
2024/01/19 12:18:54;;;;;;;34.90;20.65;;;4.00;74.80;;;;;;5066512;28;20112;-58
2024/01/19 12:21:22;;;;;;;36.65;20.48;;;4.00;74.80;;;;;;5063035;28;20045;-58
2024/01/19 12:23:56;;;;;;;27.42;18.15;;;4.00;74.80;;;;;;5064696;28;20493;-58
2024/01/19 12:26:24;;;;;;;36.70;21.05;;;4.00;74.90;;;;;;5063591;28;20040;-58
2024/01/19 12:28:55;;;;;;;36.10;20.42;;;3.90;74.90;;;;;;5033400;28;20410;-59
2024/01/19 12:31:30;;;;;;;36.58;20.75;;;3.90;74.90;;;;;;5062303;28;20056;-58
2024/01/19 12:33:57;;;;;;;34.58;19.40;;;4.00;75.00;;;;;;5064130;28;20112;-59
2024/01/19 12:36:26;;;;;;;36.00;22.17;;;4.00;75.00;;;;;;5064348;28;20032;-59
2024/01/19 12:39:05;;;;;;;40.10;22.50;;;4.00;75.10;;;;;;5068556;28;20033;-57
2024/01/19 12:41:33;;;;;;;33.72;20.60;;;4.00;75.20;;;;;;5062502;28;20040;-56
2024/01/19 12:44:00;;;;;;;35.72;22.00;;;4.00;75.20;;;;;;5065893;28;20044;-58
2024/01/19 12:46:27;;;;;;;32.08;20.05;;;4.00;75.20;;;;;;5066298;28;20044;-58